sensor_id;sensor_type;location;lat;lon;timestamp;pressure;altitude;pressure_sealevel;temperature;humidity
84615;BME280;74845;51.204;22.580;2024-02-16T00:01:42;100155.69;;;5.11;52.16
84615;BME280;74845;51.204;22.580;2024-02-16T00:04:09;100145.38;;;5.08;52.69
84615;BME280;74845;51.204;22.580;2024-02-16T00:06:36;100113.28;;;4.85;51.97
84615;BME280;74845;51.204;22.580;2024-02-16T00:09:03;100105.44;;;4.84;52.22
84615;BME280;74845;51.204;22.580;2024-02-16T00:11:30;100098.50;;;4.83;52.67
84615;BME280;74845;51.204;22.580;2024-02-16T00:13:57;100153.16;;;5.09;52.52
84615;BME280;74845;51.204;22.580;2024-02-16T00:16:24;100096.03;;;4.80;52.45
84615;BME280;74845;51.204;22.580;2024-02-16T00:18:51;100100.59;;;4.76;52.61
84615;BME280;74845;51.204;22.580;2024-02-16T00:21:18;100106.63;;;4.78;52.51
84615;BME280;74845;51.204;22.580;2024-02-16T00:23:45;100146.53;;;5.02;52.68
84615;BME280;74845;51.204;22.580;2024-02-16T00:26:12;100134.94;;;4.89;52.67
84615;BME280;74845;51.204;22.580;2024-02-16T00:28:39;100099.75;;;4.76;52.77
84615;BME280;74845;51.204;22.580;2024-02-16T00:31:06;100092.41;;;4.65;52.98
84615;BME280;74845;51.204;22.580;2024-02-16T00:33:33;100138.09;;;4.95;53.13
84615;BME280;74845;51.204;22.580;2024-02-16T00:36:00;100109.47;;;4.74;53.02
84615;BME280;74845;51.204;22.580;2024-02-16T00:38:27;100107.94;;;4.69;53.17
84615;BME280;74845;51.204;22.580;2024-02-16T00:40:54;100063.63;;;4.46;53.25
84615;BME280;74845;51.204;22.580;2024-02-16T00:43:21;100097.66;;;4.65;53.39
84615;BME280;74845;51.204;22.580;2024-02-16T00:45:48;100050.97;;;4.37;52.98
84615;BME280;74845;51.204;22.580;2024-02-16T00:48:15;100127.56;;;4.80;53.04
84615;BME280;74845;51.204;22.580;2024-02-16T00:50:42;100090.41;;;4.53;53.46
84615;BME280;74845;51.204;22.580;2024-02-16T00:53:10;99991.91;;;3.94;53.17
84615;BME280;74845;51.204;22.580;2024-02-16T00:55:37;99987.81;;;3.88;52.84
84615;BME280;74845;51.204;22.580;2024-02-16T00:58:05;100110.94;;;4.62;52.81
84615;BME280;74845;51.204;22.580;2024-02-16T01:00:32;100066.00;;;4.33;52.88
84615;BME280;74845;51.204;22.580;2024-02-16T01:02:59;100103.47;;;4.54;52.80
84615;BME280;74845;51.204;22.580;2024-02-16T01:05:26;100075.09;;;4.26;53.06
84615;BME280;74845;51.204;22.580;2024-02-16T01:07:53;100113.25;;;4.51;52.56
84615;BME280;74845;51.204;22.580;2024-02-16T01:10:20;100097.38;;;4.35;52.74
84615;BME280;74845;51.204;22.580;2024-02-16T01:12:47;100106.19;;;4.34;52.90
84615;BME280;74845;51.204;22.580;2024-02-16T01:15:14;100095.38;;;4.23;53.14
84615;BME280;74845;51.204;22.580;2024-02-16T01:17:41;100071.81;;;4.04;53.01
84615;BME280;74845;51.204;22.580;2024-02-16T01:20:08;100113.59;;;4.26;53.54
84615;BME280;74845;51.204;22.580;2024-02-16T01:22:39;100137.53;;;4.37;52.95
84615;BME280;74845;51.204;22.580;2024-02-16T01:25:08;100016.06;;;3.64;53.42
84615;BME280;74845;51.204;22.580;2024-02-16T01:27:35;100119.69;;;4.26;53.02
84615;BME280;74845;51.204;22.580;2024-02-16T01:30:03;100061.34;;;3.85;53.18
84615;BME280;74845;51.204;22.580;2024-02-16T01:32:30;100052.59;;;3.67;53.34
84615;BME280;74845;51.204;22.580;2024-02-16T01:34:57;100111.50;;;3.96;53.28
84615;BME280;74845;51.204;22.580;2024-02-16T01:37:25;100141.09;;;3.98;53.59
84615;BME280;74845;51.204;22.580;2024-02-16T01:39:52;100085.31;;;3.58;53.64
84615;BME280;74845;51.204;22.580;2024-02-16T01:42:19;100079.66;;;3.49;53.89
84615;BME280;74845;51.204;22.580;2024-02-16T01:44:46;100072.44;;;3.35;53.98
84615;BME280;74845;51.204;22.580;2024-02-16T01:47:14;100057.69;;;3.14;54.56
84615;BME280;74845;51.204;22.580;2024-02-16T01:49:41;100098.16;;;3.25;54.04
84615;BME280;74845;51.204;22.580;2024-02-16T01:52:08;100082.88;;;3.16;54.27
84615;BME280;74845;51.204;22.580;2024-02-16T01:54:36;100094.41;;;3.12;54.70
84615;BME280;74845;51.204;22.580;2024-02-16T01:57:05;100095.41;;;3.09;54.68
84615;BME280;74845;51.204;22.580;2024-02-16T01:59:32;100100.91;;;3.03;54.98
84615;BME280;74845;51.204;22.580;2024-02-16T02:02:00;100082.66;;;2.81;55.00
84615;BME280;74845;51.204;22.580;2024-02-16T02:04:27;100109.00;;;2.97;55.12
84615;BME280;74845;51.204;22.580;2024-02-16T02:06:54;100091.63;;;2.76;55.40
84615;BME280;74845;51.204;22.580;2024-02-16T02:09:21;100073.06;;;2.62;55.20
84615;BME280;74845;51.204;22.580;2024-02-16T02:11:48;100055.25;;;2.49;55.53
84615;BME280;74845;51.204;22.580;2024-02-16T02:14:16;100103.38;;;2.66;55.15
84615;BME280;74845;51.204;22.580;2024-02-16T02:16:42;100078.06;;;2.46;55.31
84615;BME280;74845;51.204;22.580;2024-02-16T02:19:21;100046.75;;;2.24;55.40
84615;BME280;74845;51.204;22.580;2024-02-16T02:21:48;100100.75;;;2.45;56.31
84615;BME280;74845;51.204;22.580;2024-02-16T02:24:15;100114.63;;;2.47;56.24
84615;BME280;74845;51.204;22.580;2024-02-16T02:26:42;100131.63;;;2.58;56.28
84615;BME280;74845;51.204;22.580;2024-02-16T02:29:08;100110.00;;;2.32;56.44
84615;BME280;74845;51.204;22.580;2024-02-16T02:31:35;100099.81;;;2.26;56.72
84615;BME280;74845;51.204;22.580;2024-02-16T02:34:02;100109.31;;;2.29;56.58
84615;BME280;74845;51.204;22.580;2024-02-16T02:36:29;100085.78;;;2.07;56.69
84615;BME280;74845;51.204;22.580;2024-02-16T02:38:56;100092.66;;;2.09;56.96
84615;BME280;74845;51.204;22.580;2024-02-16T02:41:24;100042.41;;;1.79;57.22
84615;BME280;74845;51.204;22.580;2024-02-16T02:43:51;100105.66;;;2.11;57.42
84615;BME280;74845;51.204;22.580;2024-02-16T02:46:18;100092.28;;;1.96;57.57
84615;BME280;74845;51.204;22.580;2024-02-16T02:48:46;100066.63;;;1.84;57.55
84615;BME280;74845;51.204;22.580;2024-02-16T02:51:17;100127.34;;;2.13;57.45
84615;BME280;74845;51.204;22.580;2024-02-16T02:53:44;100025.38;;;1.49;57.36
84615;BME280;74845;51.204;22.580;2024-02-16T02:56:11;100077.44;;;1.75;57.49
84615;BME280;74845;51.204;22.580;2024-02-16T02:58:39;100079.13;;;1.76;58.04
84615;BME280;74845;51.204;22.580;2024-02-16T03:01:06;100070.78;;;1.66;58.06
84615;BME280;74845;51.204;22.580;2024-02-16T03:03:35;100118.53;;;1.93;57.89
84615;BME280;74845;51.204;22.580;2024-02-16T03:06:02;100002.19;;;1.17;57.99
84615;BME280;74845;51.204;22.580;2024-02-16T03:08:30;100077.91;;;1.63;57.87
84615;BME280;74845;51.204;22.580;2024-02-16T03:10:57;100035.72;;;1.28;57.94
84615;BME280;74845;51.204;22.580;2024-02-16T03:13:28;100086.13;;;1.52;58.48
84615;BME280;74845;51.204;22.580;2024-02-16T03:15:54;100094.03;;;1.51;58.35
84615;BME280;74845;51.204;22.580;2024-02-16T03:18:22;100010.75;;;0.98;57.89
84615;BME280;74845;51.204;22.580;2024-02-16T03:20:49;100079.06;;;1.32;58.75
84615;BME280;74845;51.204;22.580;2024-02-16T03:23:17;99978.78;;;0.69;58.22
84615;BME280;74845;51.204;22.580;2024-02-16T03:25:44;100085.06;;;1.34;57.93
84615;BME280;74845;51.204;22.580;2024-02-16T03:28:12;100136.38;;;1.59;58.35
84615;BME280;74845;51.204;22.580;2024-02-16T03:30:40;100139.97;;;1.56;57.55
84615;BME280;74845;51.204;22.580;2024-02-16T03:33:07;100095.06;;;1.23;58.31
84615;BME280;74845;51.204;22.580;2024-02-16T03:35:35;100053.44;;;0.95;58.22
84615;BME280;74845;51.204;22.580;2024-02-16T03:38:03;100111.44;;;1.27;58.48
84615;BME280;74845;51.204;22.580;2024-02-16T03:40:30;100090.22;;;1.12;58.36
84615;BME280;74845;51.204;22.580;2024-02-16T03:42:57;100004.31;;;0.59;58.63
84615;BME280;74845;51.204;22.580;2024-02-16T03:45:25;100068.38;;;0.91;58.74
84615;BME280;74845;51.204;22.580;2024-02-16T03:47:53;100108.22;;;1.20;59.16
84615;BME280;74845;51.204;22.580;2024-02-16T03:50:21;100076.06;;;0.95;59.44
84615;BME280;74845;51.204;22.580;2024-02-16T03:52:49;100068.38;;;0.91;58.79
84615;BME280;74845;51.204;22.580;2024-02-16T03:55:15;100137.47;;;1.30;58.74
84615;BME280;74845;51.204;22.580;2024-02-16T03:57:42;100049.06;;;0.72;59.11
84615;BME280;74845;51.204;22.580;2024-02-16T04:00:09;100010.78;;;0.48;59.34
84615;BME280;74845;51.204;22.580;2024-02-16T04:02:40;100106.09;;;1.06;59.56
84615;BME280;74845;51.204;22.580;2024-02-16T04:05:07;100124.22;;;1.11;59.19
84615;BME280;74845;51.204;22.580;2024-02-16T04:07:35;100119.94;;;1.08;59.02
84615;BME280;74845;51.204;22.580;2024-02-16T04:10:02;100083.47;;;0.82;59.24
84615;BME280;74845;51.204;22.580;2024-02-16T04:12:29;100045.38;;;0.53;59.35
84615;BME280;74845;51.204;22.580;2024-02-16T04:14:56;100067.53;;;0.66;59.14
84615;BME280;74845;51.204;22.580;2024-02-16T04:17:23;100079.44;;;0.73;59.18
84615;BME280;74845;51.204;22.580;2024-02-16T04:19:50;100113.00;;;0.84;59.38
84615;BME280;74845;51.204;22.580;2024-02-16T04:22:17;100089.22;;;0.67;59.64
84615;BME280;74845;51.204;22.580;2024-02-16T04:24:44;100078.22;;;0.58;59.47
84615;BME280;74845;51.204;22.580;2024-02-16T04:27:11;100086.91;;;0.59;59.36
84615;BME280;74845;51.204;22.580;2024-02-16T04:29:37;100082.53;;;0.59;59.33
84615;BME280;74845;51.204;22.580;2024-02-16T04:32:04;100094.72;;;0.59;59.76
84615;BME280;74845;51.204;22.580;2024-02-16T04:34:31;100042.81;;;0.26;59.62
84615;BME280;74845;51.204;22.580;2024-02-16T04:36:58;100070.31;;;0.35;59.24
84615;BME280;74845;51.204;22.580;2024-02-16T04:39:25;100080.28;;;0.49;59.73
84615;BME280;74845;51.204;22.580;2024-02-16T04:41:52;100116.28;;;0.64;59.40
84615;BME280;74845;51.204;22.580;2024-02-16T04:44:20;100130.59;;;0.77;59.44
84615;BME280;74845;51.204;22.580;2024-02-16T04:46:46;100119.88;;;0.60;59.41
84615;BME280;74845;51.204;22.580;2024-02-16T04:49:14;99990.28;;;-0.13;59.40
84615;BME280;74845;51.204;22.580;2024-02-16T04:51:41;100137.78;;;0.71;60.01
84615;BME280;74845;51.204;22.580;2024-02-16T04:54:08;100110.56;;;0.53;59.89
84615;BME280;74845;51.204;22.580;2024-02-16T04:56:34;100091.53;;;0.24;59.36
84615;BME280;74845;51.204;22.580;2024-02-16T04:59:01;100052.66;;;0.18;60.13
84615;BME280;74845;51.204;22.580;2024-02-16T05:01:28;100047.63;;;0.12;60.17
84615;BME280;74845;51.204;22.580;2024-02-16T05:03:57;100086.22;;;0.27;60.05
84615;BME280;74845;51.204;22.580;2024-02-16T05:06:24;100103.97;;;0.43;59.78
84615;BME280;74845;51.204;22.580;2024-02-16T05:08:51;100128.94;;;0.50;59.79
84615;BME280;74845;51.204;22.580;2024-02-16T05:11:18;100125.75;;;0.40;59.70
84615;BME280;74845;51.204;22.580;2024-02-16T05:13:45;100121.56;;;0.36;59.92
84615;BME280;74845;51.204;22.580;2024-02-16T05:16:12;100093.44;;;0.19;60.43
84615;BME280;74845;51.204;22.580;2024-02-16T05:18:39;100141.16;;;0.48;59.54
84615;BME280;74845;51.204;22.580;2024-02-16T05:21:07;100091.72;;;0.18;60.27
84615;BME280;74845;51.204;22.580;2024-02-16T05:23:34;99978.59;;;-0.54;60.12
84615;BME280;74845;51.204;22.580;2024-02-16T05:26:01;100123.53;;;0.29;60.50
84615;BME280;74845;51.204;22.580;2024-02-16T05:28:28;100065.72;;;-0.10;60.63
84615;BME280;74845;51.204;22.580;2024-02-16T05:30:55;100140.66;;;0.36;60.09
84615;BME280;74845;51.204;22.580;2024-02-16T05:33:23;100127.97;;;0.26;60.46
84615;BME280;74845;51.204;22.580;2024-02-16T05:35:50;100030.09;;;-0.37;60.52
84615;BME280;74845;51.204;22.580;2024-02-16T05:38:22;100094.88;;;0.01;60.63
84615;BME280;74845;51.204;22.580;2024-02-16T05:40:59;100113.81;;;0.06;60.17
84615;BME280;74845;51.204;22.580;2024-02-16T05:43:26;100109.44;;;0.07;60.20
84615;BME280;74845;51.204;22.580;2024-02-16T05:45:53;100042.28;;;-0.38;60.49
84615;BME280;74845;51.204;22.580;2024-02-16T05:48:20;100104.53;;;-0.02;60.82
84615;BME280;74845;51.204;22.580;2024-02-16T05:50:48;100012.59;;;-0.60;60.93
84615;BME280;74845;51.204;22.580;2024-02-16T05:53:16;100118.28;;;0.03;61.29
84615;BME280;74845;51.204;22.580;2024-02-16T05:55:43;100144.75;;;0.17;60.68
84615;BME280;74845;51.204;22.580;2024-02-16T05:58:11;100107.94;;;-0.00;60.83
84615;BME280;74845;51.204;22.580;2024-02-16T06:00:39;100139.56;;;0.16;61.28
84615;BME280;74845;51.204;22.580;2024-02-16T06:03:05;100131.75;;;0.16;61.33
84615;BME280;74845;51.204;22.580;2024-02-16T06:05:34;100128.28;;;0.17;60.65
84615;BME280;74845;51.204;22.580;2024-02-16T06:08:01;100113.75;;;0.08;61.02
84615;BME280;74845;51.204;22.580;2024-02-16T06:10:28;100141.97;;;0.23;60.91
84615;BME280;74845;51.204;22.580;2024-02-16T06:12:54;100151.16;;;0.33;61.06
84615;BME280;74845;51.204;22.580;2024-02-16T06:15:21;100120.34;;;0.20;60.82
84615;BME280;74845;51.204;22.580;2024-02-16T06:17:48;100156.91;;;0.45;60.88
84615;BME280;74845;51.204;22.580;2024-02-16T06:20:16;100092.00;;;0.09;60.49
84615;BME280;74845;51.204;22.580;2024-02-16T06:22:46;100142.31;;;0.39;60.86
84615;BME280;74845;51.204;22.580;2024-02-16T06:25:14;100149.69;;;0.53;61.03
84615;BME280;74845;51.204;22.580;2024-02-16T06:27:42;100072.00;;;0.11;61.19
84615;BME280;74845;51.204;22.580;2024-02-16T06:30:09;100151.81;;;0.67;60.88
84615;BME280;74845;51.204;22.580;2024-02-16T06:32:40;100155.88;;;0.75;61.64
84615;BME280;74845;51.204;22.580;2024-02-16T06:35:08;100152.06;;;0.85;61.61
84615;BME280;74845;51.204;22.580;2024-02-16T06:37:35;100134.06;;;1.03;60.90
84615;BME280;74845;51.204;22.580;2024-02-16T06:40:04;100096.56;;;1.05;60.94
84615;BME280;74845;51.204;22.580;2024-02-16T06:42:32;100111.66;;;1.67;60.62
84615;BME280;74845;51.204;22.580;2024-02-16T06:45:01;100119.81;;;2.27;58.91
84615;BME280;74845;51.204;22.580;2024-02-16T06:47:28;100174.44;;;3.18;57.91
84615;BME280;74845;51.204;22.580;2024-02-16T06:49:55;100127.88;;;3.63;56.59
84615;BME280;74845;51.204;22.580;2024-02-16T06:52:22;100142.50;;;4.43;53.74
84615;BME280;74845;51.204;22.580;2024-02-16T06:54:50;100102.44;;;4.91;52.41
84615;BME280;74845;51.204;22.580;2024-02-16T06:57:18;100145.69;;;5.84;50.94
84615;BME280;74845;51.204;22.580;2024-02-16T06:59:46;100070.34;;;6.14;50.14
84615;BME280;74845;51.204;22.580;2024-02-16T07:02:13;100154.28;;;7.25;48.46
84615;BME280;74845;51.204;22.580;2024-02-16T07:04:41;100154.00;;;8.01;47.00
84615;BME280;74845;51.204;22.580;2024-02-16T07:07:09;100126.56;;;8.57;45.22
84615;BME280;74845;51.204;22.580;2024-02-16T07:09:36;100100.84;;;9.12;43.68
84615;BME280;74845;51.204;22.580;2024-02-16T07:12:03;100125.84;;;9.95;42.79
84615;BME280;74845;51.204;22.580;2024-02-16T07:14:30;100102.34;;;10.51;41.38
84615;BME280;74845;51.204;22.580;2024-02-16T07:16:57;100116.84;;;11.16;40.11
84615;BME280;74845;51.204;22.580;2024-02-16T07:19:24;100036.44;;;11.15;38.79
84615;BME280;74845;51.204;22.580;2024-02-16T07:21:51;100153.41;;;12.56;38.15
84615;BME280;74845;51.204;22.580;2024-02-16T07:24:19;100147.59;;;12.95;37.26
84615;BME280;74845;51.204;22.580;2024-02-16T07:26:45;100098.47;;;13.20;36.50
84615;BME280;74845;51.204;22.580;2024-02-16T07:29:12;100149.00;;;14.02;36.01
84615;BME280;74845;51.204;22.580;2024-02-16T07:31:43;100017.31;;;13.75;35.07
84615;BME280;74845;51.204;22.580;2024-02-16T07:34:10;100140.25;;;15.08;34.26
84615;BME280;74845;51.204;22.580;2024-02-16T07:36:40;100150.31;;;15.80;33.97
84615;BME280;74845;51.204;22.580;2024-02-16T07:39:07;100085.84;;;15.93;32.85
84615;BME280;74845;51.204;22.580;2024-02-16T07:41:34;100073.31;;;16.56;32.71
84615;BME280;74845;51.204;22.580;2024-02-16T07:44:01;100149.28;;;17.51;30.98
84615;BME280;74845;51.204;22.580;2024-02-16T07:46:27;100140.31;;;18.03;30.27
84615;BME280;74845;51.204;22.580;2024-02-16T07:48:54;100113.78;;;18.25;29.18
84615;BME280;74845;51.204;22.580;2024-02-16T07:51:21;100134.78;;;18.71;29.22
84615;BME280;74845;51.204;22.580;2024-02-16T07:53:48;100115.00;;;18.96;29.09
84615;BME280;74845;51.204;22.580;2024-02-16T07:56:15;100116.00;;;19.20;28.44
84615;BME280;74845;51.204;22.580;2024-02-16T07:58:42;100118.94;;;19.49;27.80
84615;BME280;74845;51.204;22.580;2024-02-16T08:01:11;100019.84;;;19.07;28.07
84615;BME280;74845;51.204;22.580;2024-02-16T08:03:42;100134.19;;;20.12;27.93
84615;BME280;74845;51.204;22.580;2024-02-16T08:06:09;100105.38;;;20.21;26.82
84615;BME280;74845;51.204;22.580;2024-02-16T08:08:36;100122.28;;;20.61;26.88
84615;BME280;74845;51.204;22.580;2024-02-16T08:11:03;100077.53;;;20.60;26.84
84615;BME280;74845;51.204;22.580;2024-02-16T08:13:30;100080.16;;;20.91;26.71
84615;BME280;74845;51.204;22.580;2024-02-16T08:15:57;100125.22;;;21.49;26.09
84615;BME280;74845;51.204;22.580;2024-02-16T08:18:24;100111.66;;;21.72;26.04
84615;BME280;74845;51.204;22.580;2024-02-16T08:20:51;100101.66;;;22.02;24.80
84615;BME280;74845;51.204;22.580;2024-02-16T08:23:18;100095.91;;;22.42;24.44
84615;BME280;74845;51.204;22.580;2024-02-16T08:25:46;100126.81;;;22.82;24.00
84615;BME280;74845;51.204;22.580;2024-02-16T08:28:13;100098.31;;;22.79;24.54
84615;BME280;74845;51.204;22.580;2024-02-16T08:30:40;100094.72;;;23.00;23.58
84615;BME280;74845;51.204;22.580;2024-02-16T08:33:11;100115.31;;;23.23;23.54
84615;BME280;74845;51.204;22.580;2024-02-16T08:35:39;100100.75;;;23.24;23.37
84615;BME280;74845;51.204;22.580;2024-02-16T08:38:06;100085.16;;;23.26;23.58
84615;BME280;74845;51.204;22.580;2024-02-16T08:40:37;100124.06;;;23.59;23.25
84615;BME280;74845;51.204;22.580;2024-02-16T08:43:05;100085.34;;;23.59;23.52
84615;BME280;74845;51.204;22.580;2024-02-16T08:45:34;100129.09;;;24.04;23.14
84615;BME280;74845;51.204;22.580;2024-02-16T08:48:01;100106.41;;;24.11;23.44
84615;BME280;74845;51.204;22.580;2024-02-16T08:50:31;100107.97;;;24.34;23.06
84615;BME280;74845;51.204;22.580;2024-02-16T08:52:57;100093.41;;;24.48;22.49
84615;BME280;74845;51.204;22.580;2024-02-16T08:55:24;100083.19;;;24.50;22.35
84615;BME280;74845;51.204;22.580;2024-02-16T08:57:51;100108.66;;;24.82;22.42
84615;BME280;74845;51.204;22.580;2024-02-16T09:00:18;100104.91;;;24.90;21.60
84615;BME280;74845;51.204;22.580;2024-02-16T09:02:46;100099.50;;;25.03;21.68
84615;BME280;74845;51.204;22.580;2024-02-16T09:05:13;100091.81;;;25.00;21.65
84615;BME280;74845;51.204;22.580;2024-02-16T09:07:41;100114.06;;;25.29;22.14
84615;BME280;74845;51.204;22.580;2024-02-16T09:10:07;100105.50;;;25.38;21.66
84615;BME280;74845;51.204;22.580;2024-02-16T09:12:35;100067.34;;;25.27;21.28
84615;BME280;74845;51.204;22.580;2024-02-16T09:15:02;100098.16;;;25.65;21.27
84615;BME280;74845;51.204;22.580;2024-02-16T09:17:29;100069.78;;;25.61;21.00
84615;BME280;74845;51.204;22.580;2024-02-16T09:19:56;100089.94;;;25.85;21.09
84615;BME280;74845;51.204;22.580;2024-02-16T09:22:22;100104.81;;;26.21;20.77
84615;BME280;74845;51.204;22.580;2024-02-16T09:25:03;100116.31;;;26.54;20.74
84615;BME280;74845;51.204;22.580;2024-02-16T09:27:30;100071.22;;;26.47;20.28
84615;BME280;74845;51.204;22.580;2024-02-16T09:29:58;100079.22;;;26.73;20.49
84615;BME280;74845;51.204;22.580;2024-02-16T09:32:25;100100.13;;;26.98;20.13
84615;BME280;74845;51.204;22.580;2024-02-16T09:34:51;100100.22;;;27.09;20.46
84615;BME280;74845;51.204;22.580;2024-02-16T09:37:21;100095.34;;;27.18;19.77
84615;BME280;74845;51.204;22.580;2024-02-16T09:39:48;100109.84;;;27.37;20.71
84615;BME280;74845;51.204;22.580;2024-02-16T09:42:14;100106.72;;;27.52;19.86
84615;BME280;74845;51.204;22.580;2024-02-16T09:44:44;100112.09;;;27.77;19.95
84615;BME280;74845;51.204;22.580;2024-02-16T09:47:12;100104.84;;;27.89;20.19
84615;BME280;74845;51.204;22.580;2024-02-16T09:49:40;100105.19;;;28.11;19.52
84615;BME280;74845;51.204;22.580;2024-02-16T09:52:10;100125.59;;;28.38;19.93
84615;BME280;74845;51.204;22.580;2024-02-16T09:54:40;100131.44;;;28.54;19.11
84615;BME280;74845;51.204;22.580;2024-02-16T09:57:07;100082.50;;;28.29;18.80
84615;BME280;74845;51.204;22.580;2024-02-16T09:59:34;100108.81;;;28.53;19.11
84615;BME280;74845;51.204;22.580;2024-02-16T10:02:03;100127.69;;;28.66;18.95
84615;BME280;74845;51.204;22.580;2024-02-16T10:04:30;100097.94;;;28.65;19.12
84615;BME280;74845;51.204;22.580;2024-02-16T10:07:03;100121.47;;;29.01;18.95
84615;BME280;74845;51.204;22.580;2024-02-16T10:09:37;100123.25;;;29.07;18.80
84615;BME280;74845;51.204;22.580;2024-02-16T10:12:06;100111.88;;;28.98;18.67
84615;BME280;74845;51.204;22.580;2024-02-16T10:14:33;100101.56;;;28.89;18.64
84615;BME280;74845;51.204;22.580;2024-02-16T10:17:04;100120.88;;;28.87;20.43
84615;BME280;74845;51.204;22.580;2024-02-16T10:19:33;100080.72;;;28.53;18.80
84615;BME280;74845;51.204;22.580;2024-02-16T10:22:12;100072.19;;;28.19;18.69
84615;BME280;74845;51.204;22.580;2024-02-16T10:24:40;100053.34;;;27.87;18.74
84615;BME280;74845;51.204;22.580;2024-02-16T10:27:18;100108.19;;;27.91;22.55
84615;BME280;74845;51.204;22.580;2024-02-16T10:29:53;100100.38;;;27.58;20.85
84615;BME280;74845;51.204;22.580;2024-02-16T10:32:21;100109.75;;;27.44;19.27
84615;BME280;74845;51.204;22.580;2024-02-16T10:34:49;100113.59;;;27.11;24.41
84615;BME280;74845;51.204;22.580;2024-02-16T10:37:18;100101.91;;;26.85;24.84
84615;BME280;74845;51.204;22.580;2024-02-16T10:39:46;100077.03;;;26.82;20.62
84615;BME280;74845;51.204;22.580;2024-02-16T10:42:14;100081.94;;;26.73;19.87
84615;BME280;74845;51.204;22.580;2024-02-16T10:44:43;100087.38;;;26.67;20.23
84615;BME280;74845;51.204;22.580;2024-02-16T10:47:10;100055.44;;;26.30;20.64
84615;BME280;74845;51.204;22.580;2024-02-16T10:49:37;100043.19;;;26.21;20.66
84615;BME280;74845;51.204;22.580;2024-02-16T10:52:05;100046.19;;;26.13;20.92
84615;BME280;74845;51.204;22.580;2024-02-16T10:54:32;100089.63;;;26.06;24.17
84615;BME280;74845;51.204;22.580;2024-02-16T10:57:00;100053.75;;;25.98;20.76
84615;BME280;74845;51.204;22.580;2024-02-16T10:59:37;100025.31;;;25.62;22.13
84615;BME280;74845;51.204;22.580;2024-02-16T11:02:07;100040.53;;;25.63;21.49
84615;BME280;74845;51.204;22.580;2024-02-16T11:04:38;100064.13;;;25.63;22.15
84615;BME280;74845;51.204;22.580;2024-02-16T11:07:24;100036.03;;;25.31;21.70
84615;BME280;74845;51.204;22.580;2024-02-16T11:09:51;100068.59;;;25.31;24.47
84615;BME280;74845;51.204;22.580;2024-02-16T11:12:18;100052.53;;;25.22;21.64
84615;BME280;74845;51.204;22.580;2024-02-16T11:14:46;100001.53;;;24.80;21.70
84615;BME280;74845;51.204;22.580;2024-02-16T11:17:22;99994.44;;;24.59;22.10
84615;BME280;74845;51.204;22.580;2024-02-16T11:19:50;100018.81;;;24.59;21.97
84615;BME280;74845;51.204;22.580;2024-02-16T11:22:18;100046.75;;;24.73;22.30
84615;BME280;74845;51.204;22.580;2024-02-16T11:24:50;100051.31;;;24.59;22.16
84615;BME280;74845;51.204;22.580;2024-02-16T11:27:20;100014.25;;;24.33;22.57
84615;BME280;74845;51.204;22.580;2024-02-16T11:29:49;99969.38;;;23.90;22.39
84615;BME280;74845;51.204;22.580;2024-02-16T11:32:18;99995.03;;;24.08;22.73
84615;BME280;74845;51.204;22.580;2024-02-16T11:34:47;100020.59;;;24.05;22.18
84615;BME280;74845;51.204;22.580;2024-02-16T11:37:15;100011.44;;;23.86;22.76
84615;BME280;74845;51.204;22.580;2024-02-16T11:39:42;99996.94;;;23.66;23.25
84615;BME280;74845;51.204;22.580;2024-02-16T11:42:13;100029.41;;;23.66;23.60
84615;BME280;74845;51.204;22.580;2024-02-16T11:44:54;100027.66;;;23.45;24.48
84615;BME280;74845;51.204;22.580;2024-02-16T11:47:24;100001.28;;;23.13;23.92
84615;BME280;74845;51.204;22.580;2024-02-16T11:50:07;99975.59;;;22.95;24.75
84615;BME280;74845;51.204;22.580;2024-02-16T11:52:42;100001.59;;;22.96;23.98
84615;BME280;74845;51.204;22.580;2024-02-16T11:55:09;100019.25;;;22.99;24.22
84615;BME280;74845;51.204;22.580;2024-02-16T11:57:38;99993.50;;;22.68;24.67
84615;BME280;74845;51.204;22.580;2024-02-16T12:00:05;99980.50;;;22.50;24.99
84615;BME280;74845;51.204;22.580;2024-02-16T12:02:38;99984.84;;;22.51;24.51
84615;BME280;74845;51.204;22.580;2024-02-16T12:05:06;100000.28;;;22.58;25.01
84615;BME280;74845;51.204;22.580;2024-02-16T12:07:37;99944.50;;;22.00;25.35
84615;BME280;74845;51.204;22.580;2024-02-16T12:10:06;99990.63;;;22.27;25.05
84615;BME280;74845;51.204;22.580;2024-02-16T12:12:33;99992.19;;;22.15;25.22
84615;BME280;74845;51.204;22.580;2024-02-16T12:15:01;100003.50;;;22.25;25.39
84615;BME280;74845;51.204;22.580;2024-02-16T12:17:29;99979.28;;;22.10;25.41
84615;BME280;74845;51.204;22.580;2024-02-16T12:19:55;99957.25;;;21.85;25.31
84615;BME280;74845;51.204;22.580;2024-02-16T12:22:23;99954.00;;;21.75;25.65
84615;BME280;74845;51.204;22.580;2024-02-16T12:24:50;99967.22;;;21.70;25.74
84615;BME280;74845;51.204;22.580;2024-02-16T12:27:18;99887.97;;;20.99;25.92
84615;BME280;74845;51.204;22.580;2024-02-16T12:29:45;99949.84;;;21.07;26.46
84615;BME280;74845;51.204;22.580;2024-02-16T12:32:13;99993.59;;;21.09;26.37
84615;BME280;74845;51.204;22.580;2024-02-16T12:34:45;99937.09;;;20.56;26.67
84615;BME280;74845;51.204;22.580;2024-02-16T12:37:12;99915.75;;;20.17;26.58
84615;BME280;74845;51.204;22.580;2024-02-16T12:39:39;99947.50;;;19.99;27.17
84615;BME280;74845;51.204;22.580;2024-02-16T12:42:07;99975.38;;;19.75;27.78
84615;BME280;74845;51.204;22.580;2024-02-16T12:44:34;99975.25;;;19.29;28.60
84615;BME280;74845;51.204;22.580;2024-02-16T12:47:01;99952.78;;;18.66;28.96
84615;BME280;74845;51.204;22.580;2024-02-16T12:49:28;99928.38;;;18.20;29.38